PWSweather.com
Personal Weather Stations
Station Observations
KB2SBX
Sugarloaf, Sugarloaf, PA 18249

SugarloafSugarloaf, PA 18249

Lat: 41.0126685, Lon: -76.1082041

Elevation: 1030

Station Type: WS-2080

http://sugarloafpaweather.webng.com/weather.shtml

High Low Average
Temperature 50.2°F10.1°C 40.8°F4.9°C 45.0°F7.2°C
Dew Point 35.4°F1.9°C 21.1°F-6.1°C 29.9°F-1.2°C
Winds 4.4 mph 7.1 kmh Calm Calm 2.0 mph S3.2 kmh S
Wind Gusts 15.9 mph25.6 kmh -- 6.0 mph9.7 kmh
Humidity 77% 32% 57%
Pressure 29.62 in1003.0 mb 29.34 in993.6 mb -
Precipitation 0.02 in0.5 mm - -
Hour Temp Dew Point Humidity Winds Wind Gusts Pressure Precip Precip Rate Daily Precip Total
12:00 AM 42.3°F5.7°C 32.5°F0.3°C 68% 1.1 mph N1.8 kmh N 3.1 mph5.0 kmh 29.39 in995.3 mb 0.00 in0.0 mm 0.00 in/hr0.0 mm/hr 0.02 in0.5 mm
12:15 AM 42.3°F5.7°C 32.5°F0.3°C 68% 1.0 mph NNE1.6 kmh NNE 3.8 mph6.1 kmh 29.38 in994.9 mb 0.00 in0.0 mm 0.00 in/hr0.0 mm/hr 0.00 in0.0 mm
12:30 AM 42.4°F5.8°C 33.0°F0.6°C 69% 1.0 mph NE1.6 kmh NE 3.1 mph5.0 kmh 29.38 in994.9 mb 0.00 in0.0 mm 0.00 in/hr0.0 mm/hr 0.00 in0.0 mm
12:45 AM 43.7°F6.5°C 33.1°F0.6°C 66% 1.3 mph NE2.1 kmh NE 3.8 mph6.1 kmh 29.38 in994.9 mb 0.00 in0.0 mm 0.00 in/hr0.0 mm/hr 0.00 in0.0 mm
01:00 AM 45.3°F7.4°C 33.1°F0.6°C 62% 1.8 mph S2.9 kmh S 8.3 mph13.4 kmh 29.37 in994.6 mb 0.00 in0.0 mm 0.00 in/hr0.0 mm/hr 0.00 in0.0 mm
01:15 AM 46.0°F7.8°C 33.4°F0.8°C 61% 2.1 mph SE3.4 kmh SE 8.3 mph13.4 kmh 29.38 in994.9 mb 0.00 in0.0 mm 0.00 in/hr0.0 mm/hr 0.00 in0.0 mm
01:30 AM 45.1°F7.3°C 32.9°F0.5°C 62% 0.9 mph N1.4 kmh N 3.1 mph5.0 kmh 29.38 in994.9 mb 0.00 in0.0 mm 0.00 in/hr0.0 mm/hr 0.00 in0.0 mm
01:45 AM 45.7°F7.6°C 33.0°F0.6°C 61% 1.1 mph NW1.8 kmh NW 5.4 mph8.7 kmh 29.38 in994.9 mb 0.00 in0.0 mm 0.00 in/hr0.0 mm/hr 0.00 in0.0 mm
02:00 AM 45.3°F7.4°C 32.7°F0.4°C 61% Calm Calm -- 29.37 in994.6 mb 0.00 in0.0 mm 0.00 in/hr0.0 mm/hr 0.00 in0.0 mm
02:15 AM 45.1°F7.3°C 32.5°F0.3°C 61% Calm Calm -- 29.36 in994.2 mb 0.00 in0.0 mm 0.00 in/hr0.0 mm/hr 0.00 in0.0 mm
02:30 AM 44.8°F7.1°C 32.6°F0.3°C 62% Calm Calm -- 29.35 in993.9 mb 0.00 in0.0 mm 0.00 in/hr0.0 mm/hr 0.00 in0.0 mm
02:45 AM 43.9°F6.6°C 32.1°F0.1°C 63% Calm Calm -- 29.35 in993.9 mb 0.00 in0.0 mm 0.00 in/hr0.0 mm/hr 0.00 in0.0 mm
03:00 AM 43.0°F6.1°C 32.0°F0.0°C 65% Calm Calm -- 29.34 in993.6 mb 0.00 in0.0 mm 0.00 in/hr0.0 mm/hr 0.00 in0.0 mm
03:15 AM 42.1°F5.6°C 32.3°F0.2°C 68% Calm Calm -- 29.34 in993.6 mb 0.00 in0.0 mm 0.00 in/hr0.0 mm/hr 0.00 in0.0 mm
03:30 AM 41.4°F5.2°C 32.0°F0.0°C 69% Calm Calm -- 29.34 in993.6 mb 0.00 in0.0 mm 0.00 in/hr0.0 mm/hr 0.00 in0.0 mm
03:45 AM 41.0°F5.0°C 32.0°F0.0°C 70% Calm Calm -- 29.36 in994.2 mb 0.00 in0.0 mm 0.00 in/hr0.0 mm/hr 0.00 in0.0 mm
04:00 AM 40.8°F4.9°C 32.5°F0.3°C 72% Calm Calm 0.7 mph1.1 kmh 29.35 in993.9 mb 0.00 in0.0 mm 0.00 in/hr0.0 mm/hr 0.00 in0.0 mm
04:15 AM 41.0°F5.0°C 32.3°F0.2°C 71% 0.2 mph NNE0.3 kmh NNE 1.6 mph2.6 kmh 29.35 in993.9 mb 0.00 in0.0 mm 0.00 in/hr0.0 mm/hr 0.00 in0.0 mm
04:30 AM 41.0°F5.0°C 32.3°F0.2°C 71% Calm Calm -- 29.35 in993.9 mb 0.00 in0.0 mm 0.00 in/hr0.0 mm/hr 0.00 in0.0 mm
04:45 AM 41.0°F5.0°C 32.7°F0.4°C 72% 0.1 mph N0.2 kmh N 1.6 mph2.6 kmh 29.35 in993.9 mb 0.00 in0.0 mm 0.00 in/hr0.0 mm/hr 0.00 in0.0 mm
05:00 AM 41.0°F5.0°C 32.7°F0.4°C 72% 0.2 mph NNE0.3 kmh NNE 1.6 mph2.6 kmh 29.36 in994.2 mb 0.00 in0.0 mm 0.00 in/hr0.0 mm/hr 0.00 in0.0 mm
05:15 AM 41.4°F5.2°C 33.0°F0.6°C 72% 0.1 mph NE0.2 kmh NE 1.6 mph2.6 kmh 29.36 in994.2 mb 0.00 in0.0 mm 0.00 in/hr0.0 mm/hr 0.00 in0.0 mm
05:30 AM 41.5°F5.3°C 33.2°F0.7°C 72% Calm Calm -- 29.36 in994.2 mb 0.00 in0.0 mm 0.00 in/hr0.0 mm/hr 0.00 in0.0 mm
05:45 AM 41.4°F5.2°C 33.0°F0.6°C 72% 0.3 mph NE0.5 kmh NE 1.6 mph2.6 kmh 29.37 in994.6 mb 0.00 in0.0 mm 0.00 in/hr0.0 mm/hr 0.00 in0.0 mm
06:00 AM 41.5°F5.3°C 34.2°F1.2°C 75% 1.0 mph SSE1.6 kmh SSE 4.5 mph7.2 kmh 29.36 in994.2 mb 0.00 in0.0 mm 0.00 in/hr0.0 mm/hr 0.00 in0.0 mm
06:15 AM 41.2°F5.1°C 33.9°F1.1°C 75% Calm Calm 1.6 mph2.6 kmh 29.37 in994.6 mb 0.00 in0.0 mm 0.00 in/hr0.0 mm/hr 0.00 in0.0 mm
06:30 AM 41.2°F5.1°C 34.5°F1.4°C 77% 0.7 mph SSE1.1 kmh SSE 3.8 mph6.1 kmh 29.38 in994.9 mb 0.00 in0.0 mm 0.00 in/hr0.0 mm/hr 0.00 in0.0 mm
06:45 AM 42.1°F5.6°C 35.4°F1.9°C 77% 1.5 mph S2.4 kmh S 9.2 mph14.8 kmh 29.40 in995.6 mb 0.00 in0.0 mm 0.00 in/hr0.0 mm/hr 0.00 in0.0 mm
07:00 AM 43.3°F6.3°C 35.3°F1.8°C 73% 2.3 mph NW3.7 kmh NW 7.6 mph12.2 kmh 29.41 in995.9 mb 0.00 in0.0 mm 0.00 in/hr0.0 mm/hr 0.00 in0.0 mm
07:15 AM 42.3°F5.7°C 34.2°F1.2°C 73% 2.4 mph WNW3.9 kmh WNW 7.6 mph12.2 kmh 29.42 in996.3 mb 0.00 in0.0 mm 0.00 in/hr0.0 mm/hr 0.00 in0.0 mm
07:30 AM 41.4°F5.2°C 34.0°F1.1°C 75% 1.8 mph NW2.9 kmh NW 7.6 mph12.2 kmh 29.43 in996.6 mb 0.00 in0.0 mm 0.00 in/hr0.0 mm/hr 0.00 in0.0 mm
07:45 AM 41.5°F5.3°C 34.5°F1.4°C 76% 1.5 mph WSW2.4 kmh WSW 5.4 mph8.7 kmh 29.44 in997.0 mb 0.00 in0.0 mm 0.00 in/hr0.0 mm/hr 0.00 in0.0 mm
08:00 AM 42.1°F5.6°C 35.1°F1.7°C 76% 1.6 mph SW2.6 kmh SW 6.9 mph11.1 kmh 29.45 in997.3 mb 0.00 in0.0 mm 0.00 in/hr0.0 mm/hr 0.00 in0.0 mm
08:15 AM 42.6°F5.9°C 35.3°F1.8°C 75% 2.8 mph NW4.5 kmh NW 8.3 mph13.4 kmh 29.46 in997.6 mb 0.00 in0.0 mm 0.00 in/hr0.0 mm/hr 0.00 in0.0 mm
08:30 AM 43.2°F6.2°C 35.4°F1.9°C 74% 1.2 mph NNW1.9 kmh NNW 3.8 mph6.1 kmh 29.46 in997.6 mb 0.00 in0.0 mm 0.00 in/hr0.0 mm/hr 0.00 in0.0 mm
08:45 AM 43.9°F6.6°C 35.4°F1.9°C 72% 1.8 mph WNW2.9 kmh WNW 5.4 mph8.7 kmh 29.48 in998.3 mb 0.00 in0.0 mm 0.00 in/hr0.0 mm/hr 0.00 in0.0 mm
09:00 AM 44.8°F7.1°C 34.9°F1.6°C 68% 3.5 mph SW5.6 kmh SW 10.7 mph17.2 kmh 29.48 in998.3 mb 0.00 in0.0 mm 0.00 in/hr0.0 mm/hr 0.00 in0.0 mm
09:15 AM 44.2°F6.8°C 34.7°F1.5°C 69% 2.8 mph NW4.5 kmh NW 9.2 mph14.8 kmh 29.50 in999.0 mb 0.00 in0.0 mm 0.00 in/hr0.0 mm/hr 0.00 in0.0 mm
09:30 AM 43.5°F6.4°C 34.0°F1.1°C 69% 2.3 mph WNW3.7 kmh WNW 8.3 mph13.4 kmh 29.50 in999.0 mb 0.00 in0.0 mm 0.00 in/hr0.0 mm/hr 0.00 in0.0 mm
09:45 AM 44.6°F7.0°C 34.3°F1.3°C 67% 2.3 mph WSW3.7 kmh WSW 9.8 mph15.8 kmh 29.50 in999.0 mb 0.00 in0.0 mm 0.00 in/hr0.0 mm/hr 0.00 in0.0 mm
10:00 AM 45.0°F7.2°C 33.5°F0.8°C 64% 3.2 mph NNW5.1 kmh NNW 7.6 mph12.2 kmh 29.50 in999.0 mb 0.00 in0.0 mm 0.00 in/hr0.0 mm/hr 0.00 in0.0 mm
10:15 AM 44.8°F7.1°C 33.4°F0.8°C 64% 3.9 mph WNW6.3 kmh WNW 13.0 mph20.9 kmh 29.50 in999.0 mb 0.00 in0.0 mm 0.00 in/hr0.0 mm/hr 0.00 in0.0 mm
10:30 AM 45.1°F7.3°C 33.3°F0.7°C 63% 3.1 mph W5.0 kmh W 11.4 mph18.3 kmh 29.51 in999.3 mb 0.00 in0.0 mm 0.00 in/hr0.0 mm/hr 0.00 in0.0 mm
10:45 AM 45.7°F7.6°C 34.2°F1.2°C 64% 3.4 mph NW5.5 kmh NW 9.8 mph15.8 kmh 29.51 in999.3 mb 0.00 in0.0 mm 0.00 in/hr0.0 mm/hr 0.00 in0.0 mm
11:00 AM 46.0°F7.8°C 32.9°F0.5°C 60% 3.6 mph N5.8 kmh N 14.5 mph23.3 kmh 29.51 in999.3 mb 0.00 in0.0 mm 0.00 in/hr0.0 mm/hr 0.00 in0.0 mm
11:15 AM 47.3°F8.5°C 32.4°F0.2°C 56% 3.4 mph ESE5.5 kmh ESE 10.7 mph17.2 kmh 29.52 in999.7 mb 0.00 in0.0 mm 0.00 in/hr0.0 mm/hr 0.00 in0.0 mm
11:30 AM 46.9°F8.3°C 30.7°F-0.7°C 53% 3.8 mph NW6.1 kmh NW 10.7 mph17.2 kmh 29.52 in999.7 mb 0.00 in0.0 mm 0.00 in/hr0.0 mm/hr 0.00 in0.0 mm
11:45 AM 46.6°F8.1°C 29.9°F-1.2°C 52% 3.2 mph WNW5.1 kmh WNW 9.2 mph14.8 kmh 29.54 in1000.3 mb 0.00 in0.0 mm 0.00 in/hr0.0 mm/hr 0.00 in0.0 mm
12:00 PM 46.6°F8.1°C 28.5°F-1.9°C 49% 4.4 mph NNW7.1 kmh NNW 14.5 mph23.3 kmh 29.53 in1000.0 mb 0.00 in0.0 mm 0.00 in/hr0.0 mm/hr 0.00 in0.0 mm
12:15 PM 47.3°F8.5°C 28.1°F-2.2°C 47% 4.4 mph WSW7.1 kmh WSW 10.7 mph17.2 kmh 29.53 in1000.0 mb 0.00 in0.0 mm 0.00 in/hr0.0 mm/hr 0.00 in0.0 mm
12:30 PM 47.1°F8.4°C 29.4°F-1.4°C 50% 2.8 mph NW4.5 kmh NW 8.3 mph13.4 kmh 29.53 in1000.0 mb 0.00 in0.0 mm 0.00 in/hr0.0 mm/hr 0.00 in0.0 mm
12:45 PM 48.6°F9.2°C 28.7°F-1.8°C 46% 3.8 mph NNE6.1 kmh NNE 13.0 mph20.9 kmh 29.53 in1000.0 mb 0.00 in0.0 mm 0.00 in/hr0.0 mm/hr 0.00 in0.0 mm
01:00 PM 49.5°F9.7°C 27.3°F-2.6°C 42% 3.8 mph N6.1 kmh N 9.8 mph15.8 kmh 29.52 in999.7 mb 0.00 in0.0 mm 0.00 in/hr0.0 mm/hr 0.00 in0.0 mm
01:15 PM 48.0°F8.9°C 26.0°F-3.3°C 42% 3.2 mph NNW5.1 kmh NNW 9.8 mph15.8 kmh 29.53 in1000.0 mb 0.00 in0.0 mm 0.00 in/hr0.0 mm/hr 0.00 in0.0 mm
01:30 PM 48.2°F9.0°C 25.0°F-3.9°C 40% 4.0 mph NW6.4 kmh NW 15.9 mph25.6 kmh 29.53 in1000.0 mb 0.00 in0.0 mm 0.00 in/hr0.0 mm/hr 0.00 in0.0 mm
01:45 PM 48.0°F8.9°C 26.0°F-3.3°C 42% 3.2 mph NNW5.1 kmh NNW 8.3 mph13.4 kmh 29.53 in1000.0 mb 0.00 in0.0 mm 0.00 in/hr0.0 mm/hr 0.00 in0.0 mm
02:00 PM 48.7°F9.3°C 26.1°F-3.3°C 41% 2.8 mph N4.5 kmh N 8.3 mph13.4 kmh 29.53 in1000.0 mb 0.00 in0.0 mm 0.00 in/hr0.0 mm/hr 0.00 in0.0 mm
02:15 PM 49.1°F9.5°C 25.2°F-3.8°C 39% 2.0 mph NW3.2 kmh NW 5.4 mph8.7 kmh 29.54 in1000.3 mb 0.00 in0.0 mm 0.00 in/hr0.0 mm/hr 0.00 in0.0 mm
02:30 PM 48.7°F9.3°C 23.6°F-4.7°C 37% 2.6 mph NNW4.2 kmh NNW 6.0 mph9.7 kmh 29.54 in1000.3 mb 0.00 in0.0 mm 0.00 in/hr0.0 mm/hr 0.00 in0.0 mm
02:45 PM 49.6°F9.8°C 24.4°F-4.2°C 37% 3.3 mph NW5.3 kmh NW 7.6 mph12.2 kmh 29.55 in1000.7 mb 0.00 in0.0 mm 0.00 in/hr0.0 mm/hr 0.00 in0.0 mm
03:00 PM 50.2°F10.1°C 22.2°F-5.4°C 33% 3.0 mph WNW4.8 kmh WNW 6.9 mph11.1 kmh 29.56 in1001.0 mb 0.00 in0.0 mm 0.00 in/hr0.0 mm/hr 0.00 in0.0 mm
03:15 PM 50.2°F10.1°C 22.9°F-5.1°C 34% 3.3 mph N5.3 kmh N 10.7 mph17.2 kmh 29.57 in1001.4 mb 0.00 in0.0 mm 0.00 in/hr0.0 mm/hr 0.00 in0.0 mm
03:30 PM 50.0°F10.0°C 21.3°F-5.9°C 32% 3.1 mph NW5.0 kmh NW 9.8 mph15.8 kmh 29.59 in1002.0 mb 0.00 in0.0 mm 0.00 in/hr0.0 mm/hr 0.00 in0.0 mm
03:45 PM 50.0°F10.0°C 22.0°F-5.6°C 33% 1.8 mph NW2.9 kmh NW 7.6 mph12.2 kmh 29.60 in1002.4 mb 0.00 in0.0 mm 0.00 in/hr0.0 mm/hr 0.00 in0.0 mm
04:00 PM 49.6°F9.8°C 21.7°F-5.7°C 33% 1.7 mph W2.7 kmh W 5.4 mph8.7 kmh 29.60 in1002.4 mb 0.00 in0.0 mm 0.00 in/hr0.0 mm/hr 0.00 in0.0 mm
04:15 PM 49.5°F9.7°C 22.3°F-5.4°C 34% 2.3 mph WSW3.7 kmh WSW 6.9 mph11.1 kmh 29.61 in1002.7 mb 0.00 in0.0 mm 0.00 in/hr0.0 mm/hr 0.00 in0.0 mm
04:30 PM 48.9°F9.4°C 21.1°F-6.1°C 33% 1.5 mph WNW2.4 kmh WNW 11.4 mph18.3 kmh 29.62 in1003.0 mb 0.00 in0.0 mm 0.00 in/hr0.0 mm/hr 0.00 in0.0 mm
04:45 PM 48.4°F9.1°C 21.3°F-5.9°C 34% 0.9 mph W1.4 kmh W 5.4 mph8.7 kmh 29.62 in1003.0 mb 0.00 in0.0 mm 0.00 in/hr0.0 mm/hr 0.00 in0.0 mm
05:00 PM 47.8°F8.8°C 22.2°F-5.4°C 36% 1.1 mph NW1.8 kmh NW 6.0 mph9.7 kmh 29.61 in1002.7 mb 0.00 in0.0 mm 0.00 in/hr0.0 mm/hr 0.00 in0.0 mm
05:15 PM 47.5°F8.6°C 21.9°F-5.6°C 36% 1.4 mph NW2.3 kmh NW 3.8 mph6.1 kmh 29.62 in1003.0 mb 0.00 in0.0 mm 0.00 in/hr0.0 mm/hr 0.00 in0.0 mm
05:30 PM 46.9°F8.3°C 21.4°F-5.9°C 36% 0.3 mph N0.5 kmh N 2.2 mph3.5 kmh 29.62 in1003.0 mb 0.00 in0.0 mm 0.00 in/hr0.0 mm/hr 0.00 in0.0 mm
05:45 PM 46.2°F7.9°C 22.0°F-5.6°C 38% Calm Calm -- 29.62 in1003.0 mb 0.00 in0.0 mm 0.00 in/hr0.0 mm/hr 0.00 in0.0 mm
06:00 PM 45.3°F7.4°C 21.8°F-5.7°C 39% Calm Calm -- 29.62 in1003.0 mb 0.00 in0.0 mm 0.00 in/hr0.0 mm/hr 0.00 in0.0 mm
06:15 PM 44.2°F6.8°C 22.0°F-5.6°C 41% Calm Calm -- 29.62 in1003.0 mb 0.00 in0.0 mm 0.00 in/hr0.0 mm/hr 0.00 in0.0 mm
06:30 PM 43.7°F6.5°C 21.6°F-5.8°C 41% Calm Calm -- 29.62 in1003.0 mb 0.00 in0.0 mm 0.00 in/hr0.0 mm/hr 0.00 in0.0 mm
06:45 PM 43.3°F6.3°C 21.8°F-5.7°C 42% Calm Calm -- 29.62 in1003.0 mb 0.00 in0.0 mm 0.00 in/hr0.0 mm/hr 0.00 in0.0 mm
07:00 PM 43.2°F6.2°C 23.3°F-4.8°C 45% 0.6 mph N1.0 kmh N 1.6 mph2.6 kmh 29.63 in1003.4 mb 0.00 in0.0 mm 0.00 in/hr0.0 mm/hr 0.00 in0.0 mm
07:15 PM 42.8°F6.0°C 22.9°F-5.1°C 45% Calm Calm 0.7 mph1.1 kmh 29.64 in1003.7 mb 0.00 in0.0 mm 0.00 in/hr0.0 mm/hr 0.00 in0.0 mm
07:30 PM 42.4°F5.8°C 25.1°F-3.8°C 50% Calm Calm -- 29.64 in1003.7 mb 0.00 in0.0 mm 0.00 in/hr0.0 mm/hr 0.00 in0.0 mm
07:45 PM 42.4°F5.8°C 24.6°F-4.1°C 49% Calm Calm -- 29.64 in1003.7 mb 0.00 in0.0 mm 0.00 in/hr0.0 mm/hr 0.00 in0.0 mm
08:00 PM 42.6°F5.9°C 24.8°F-4.0°C 49% Calm Calm -- 29.64 in1003.7 mb 0.00 in0.0 mm 0.00 in/hr0.0 mm/hr 0.00 in0.0 mm
08:15 PM 42.1°F5.6°C 24.8°F-4.0°C 50% Calm Calm -- 29.65 in1004.1 mb 0.00 in0.0 mm 0.00 in/hr0.0 mm/hr 0.00 in0.0 mm
08:30 PM 41.5°F5.3°C 25.2°F-3.8°C 52% Calm Calm -- 29.65 in1004.1 mb 0.00 in0.0 mm 0.00 in/hr0.0 mm/hr 0.00 in0.0 mm
08:45 PM 41.4°F5.2°C 24.6°F-4.1°C 51% Calm Calm -- 29.66 in1004.4 mb 0.00 in0.0 mm 0.00 in/hr0.0 mm/hr 0.00 in0.0 mm
09:00 PM 41.4°F5.2°C 24.6°F-4.1°C 51% Calm Calm -- 29.66 in1004.4 mb 0.00 in0.0 mm 0.00 in/hr0.0 mm/hr 0.00 in0.0 mm
09:15 PM 41.2°F5.1°C 24.4°F-4.2°C 51% Calm Calm -- 29.67 in1004.7 mb 0.00 in0.0 mm 0.00 in/hr0.0 mm/hr 0.00 in0.0 mm
09:30 PM 41.0°F5.0°C 24.3°F-4.3°C 51% Calm Calm -- 29.68 in1005.1 mb 0.00 in0.0 mm 0.00 in/hr0.0 mm/hr 0.00 in0.0 mm
09:45 PM 40.6°F4.8°C 26.2°F-3.2°C 56% Calm Calm -- 29.68 in1005.1 mb 0.00 in0.0 mm 0.00 in/hr0.0 mm/hr 0.00 in0.0 mm
10:00 PM 41.0°F5.0°C 26.1°F-3.3°C 55% 0.1 mph NE0.2 kmh NE 2.2 mph3.5 kmh 29.68 in1005.1 mb 0.00 in0.0 mm 0.00 in/hr0.0 mm/hr 0.00 in0.0 mm
10:15 PM 41.2°F5.1°C 26.3°F-3.2°C 55% 0.3 mph E0.5 kmh E 2.2 mph3.5 kmh 29.67 in1004.7 mb 0.00 in0.0 mm 0.00 in/hr0.0 mm/hr 0.00 in0.0 mm
10:30 PM 41.2°F5.1°C 28.4°F-2.0°C 60% 0.9 mph SW1.4 kmh SW 3.8 mph6.1 kmh 29.67 in1004.7 mb 0.00 in0.0 mm 0.00 in/hr0.0 mm/hr 0.00 in0.0 mm
10:45 PM 40.3°F4.6°C 28.3°F-2.1°C 62% 1.1 mph ENE1.8 kmh ENE 4.5 mph7.2 kmh 29.66 in1004.4 mb 0.00 in0.0 mm 0.00 in/hr0.0 mm/hr 0.00 in0.0 mm
11:00 PM 41.0°F5.0°C 27.8°F-2.3°C 59% 0.2 mph E0.3 kmh E 3.1 mph5.0 kmh 29.65 in1004.1 mb 0.00 in0.0 mm 0.00 in/hr0.0 mm/hr 0.00 in0.0 mm
11:15 PM 41.0°F5.0°C 28.2°F-2.1°C 60% 0.2 mph SE0.3 kmh SE 3.1 mph5.0 kmh 29.62 in1003.0 mb 0.00 in0.0 mm 0.00 in/hr0.0 mm/hr 0.00 in0.0 mm
11:30 PM 39.7°F4.3°C 31.1°F-0.5°C 71% 0.7 mph N1.1 kmh N 3.1 mph5.0 kmh 29.60 in1002.4 mb 0.01 in0.3 mm 0.04 in/hr1.0 mm/hr 0.01 in0.3 mm
11:45 PM 39.0°F3.9°C 32.1°F0.1°C 76% 0.1 mph NNW0.2 kmh NNW 2.2 mph3.5 kmh 29.60 in1002.4 mb 0.01 in0.3 mm 0.00 in/hr0.0 mm/hr 0.01 in0.3 mm